sensor_id;sensor_type;location;lat;lon;timestamp;temperature;humidity
77218;DHT22;66214;51.302;17.068;2023-01-08T00:00:23;3.60;89.42
77218;DHT22;66214;51.302;17.068;2023-01-08T00:03:31;3.60;89.41
77218;DHT22;66214;51.302;17.068;2023-01-08T00:06:00;3.57;89.39
77218;DHT22;66214;51.302;17.068;2023-01-08T00:08:30;3.55;89.37
77218;DHT22;66214;51.302;17.068;2023-01-08T00:10:59;3.54;89.36
77218;DHT22;66214;51.302;17.068;2023-01-08T00:13:28;3.52;89.34
77218;DHT22;66214;51.302;17.068;2023-01-08T00:15:56;3.48;89.37
77218;DHT22;66214;51.302;17.068;2023-01-08T00:18:33;3.45;89.32
77218;DHT22;66214;51.302;17.068;2023-01-08T00:21:02;3.40;89.20
77218;DHT22;66214;51.302;17.068;2023-01-08T00:23:31;3.36;89.11
77218;DHT22;66214;51.302;17.068;2023-01-08T00:26:01;3.35;89.32
77218;DHT22;66214;51.302;17.068;2023-01-08T00:28:32;3.35;89.47
77218;DHT22;66214;51.302;17.068;2023-01-08T00:31:02;3.37;89.59
77218;DHT22;66214;51.302;17.068;2023-01-08T00:33:32;3.38;89.63
77218;DHT22;66214;51.302;17.068;2023-01-08T00:36:12;3.40;89.66
77218;DHT22;66214;51.302;17.068;2023-01-08T00:38:43;3.42;89.70
77218;DHT22;66214;51.302;17.068;2023-01-08T00:41:13;3.43;89.79
77218;DHT22;66214;51.302;17.068;2023-01-08T00:43:43;3.43;89.79
77218;DHT22;66214;51.302;17.068;2023-01-08T00:49:44;3.48;89.89
77218;DHT22;66214;51.302;17.068;2023-01-08T00:52:12;3.48;89.96
77218;DHT22;66214;51.302;17.068;2023-01-08T00:54:40;3.46;89.93
77218;DHT22;66214;51.302;17.068;2023-01-08T00:57:08;3.45;89.79
77218;DHT22;66214;51.302;17.068;2023-01-08T00:59:36;3.43;89.63
77218;DHT22;66214;51.302;17.068;2023-01-08T01:02:05;3.41;89.48
77218;DHT22;66214;51.302;17.068;2023-01-08T01:04:32;3.39;89.43
77218;DHT22;66214;51.302;17.068;2023-01-08T01:07:01;3.35;89.37
77218;DHT22;66214;51.302;17.068;2023-01-08T01:09:29;3.34;89.30
77218;DHT22;66214;51.302;17.068;2023-01-08T01:11:58;3.32;89.27
77218;DHT22;66214;51.302;17.068;2023-01-08T01:14:25;3.30;89.23
77218;DHT22;66214;51.302;17.068;2023-01-08T01:16:53;3.30;89.19
77218;DHT22;66214;51.302;17.068;2023-01-08T01:19:22;3.31;89.21
77218;DHT22;66214;51.302;17.068;2023-01-08T01:21:50;3.29;89.18
77218;DHT22;66214;51.302;17.068;2023-01-08T01:24:18;3.26;89.11
77218;DHT22;66214;51.302;17.068;2023-01-08T01:26:48;3.23;89.02
77218;DHT22;66214;51.302;17.068;2023-01-08T01:29:16;3.18;89.00
77218;DHT22;66214;51.302;17.068;2023-01-08T01:31:44;3.14;88.96
77218;DHT22;66214;51.302;17.068;2023-01-08T01:34:12;3.09;88.91
77218;DHT22;66214;51.302;17.068;2023-01-08T01:36:40;3.07;89.00
77218;DHT22;66214;51.302;17.068;2023-01-08T01:39:08;3.05;89.09
77218;DHT22;66214;51.302;17.068;2023-01-08T01:44:47;3.07;89.58
77218;DHT22;66214;51.302;17.068;2023-01-08T01:50:05;3.09;89.69
77218;DHT22;66214;51.302;17.068;2023-01-08T01:55:43;3.12;89.75
77218;DHT22;66214;51.302;17.068;2023-01-08T01:58:14;3.10;89.74
77218;DHT22;66214;51.302;17.068;2023-01-08T02:00:46;3.07;89.76
77218;DHT22;66214;51.302;17.068;2023-01-08T02:03:14;3.03;89.78
77218;DHT22;66214;51.302;17.068;2023-01-08T02:08:41;2.99;89.86
77218;DHT22;66214;51.302;17.068;2023-01-08T02:15:05;2.97;89.88
77218;DHT22;66214;51.302;17.068;2023-01-08T02:21:08;2.93;89.79
77218;DHT22;66214;51.302;17.068;2023-01-08T02:23:44;2.91;89.84
77218;DHT22;66214;51.302;17.068;2023-01-08T02:26:29;2.90;89.86
77218;DHT22;66214;51.302;17.068;2023-01-08T02:31:30;2.91;89.76
77218;DHT22;66214;51.302;17.068;2023-01-08T02:34:00;2.94;89.72
77218;DHT22;66214;51.302;17.068;2023-01-08T02:42:24;2.78;89.54
77218;DHT22;66214;51.302;17.068;2023-01-08T02:54:01;2.71;89.93
77218;DHT22;66214;51.302;17.068;2023-01-08T02:56:39;2.74;90.11
77218;DHT22;66214;51.302;17.068;2023-01-08T02:59:11;2.77;90.26
77218;DHT22;66214;51.302;17.068;2023-01-08T03:01:42;2.79;90.45
77218;DHT22;66214;51.302;17.068;2023-01-08T03:04:15;2.82;90.54
77218;DHT22;66214;51.302;17.068;2023-01-08T03:06:49;2.83;90.45
77218;DHT22;66214;51.302;17.068;2023-01-08T03:09:18;2.86;90.48
77218;DHT22;66214;51.302;17.068;2023-01-08T03:11:55;2.88;90.51
77218;DHT22;66214;51.302;17.068;2023-01-08T03:15:18;2.90;90.55
77218;DHT22;66214;51.302;17.068;2023-01-08T03:17:53;2.93;90.63
77218;DHT22;66214;51.302;17.068;2023-01-08T03:20:28;2.94;90.68
77218;DHT22;66214;51.302;17.068;2023-01-08T03:22:59;2.93;90.71
77218;DHT22;66214;51.302;17.068;2023-01-08T03:25:34;2.93;90.75
77218;DHT22;66214;51.302;17.068;2023-01-08T03:28:08;2.94;90.79
77218;DHT22;66214;51.302;17.068;2023-01-08T03:30:42;2.96;90.92
77218;DHT22;66214;51.302;17.068;2023-01-08T03:33:10;2.97;90.98
77218;DHT22;66214;51.302;17.068;2023-01-08T03:35:40;2.98;91.00
77218;DHT22;66214;51.302;17.068;2023-01-08T03:38:14;2.99;91.03
77218;DHT22;66214;51.302;17.068;2023-01-08T03:40:51;3.01;91.01
77218;DHT22;66214;51.302;17.068;2023-01-08T03:43:27;3.02;91.14
77218;DHT22;66214;51.302;17.068;2023-01-08T03:45:57;3.04;91.04
77218;DHT22;66214;51.302;17.068;2023-01-08T03:48:29;3.04;91.03
77218;DHT22;66214;51.302;17.068;2023-01-08T03:50:59;3.05;91.00
77218;DHT22;66214;51.302;17.068;2023-01-08T03:53:28;3.06;90.95
77218;DHT22;66214;51.302;17.068;2023-01-08T03:55:56;3.04;90.96
77218;DHT22;66214;51.302;17.068;2023-01-08T03:58:25;3.03;90.96
77218;DHT22;66214;51.302;17.068;2023-01-08T04:00:53;3.03;90.95
77218;DHT22;66214;51.302;17.068;2023-01-08T04:03:21;3.01;90.94
77218;DHT22;66214;51.302;17.068;2023-01-08T04:05:51;2.98;90.90
77218;DHT22;66214;51.302;17.068;2023-01-08T04:08:19;2.97;90.86
77218;DHT22;66214;51.302;17.068;2023-01-08T04:10:46;2.98;90.98
77218;DHT22;66214;51.302;17.068;2023-01-08T04:13:14;2.98;91.03
77218;DHT22;66214;51.302;17.068;2023-01-08T04:15:46;2.98;91.02
77218;DHT22;66214;51.302;17.068;2023-01-08T04:18:16;2.99;91.01
77218;DHT22;66214;51.302;17.068;2023-01-08T04:20:46;3.00;91.07
77218;DHT22;66214;51.302;17.068;2023-01-08T04:23:14;3.00;91.12
77218;DHT22;66214;51.302;17.068;2023-01-08T04:25:43;3.01;91.30
77218;DHT22;66214;51.302;17.068;2023-01-08T04:28:11;3.05;91.32
77218;DHT22;66214;51.302;17.068;2023-01-08T04:30:39;3.05;91.40
77218;DHT22;66214;51.302;17.068;2023-01-08T04:33:07;3.06;91.45
77218;DHT22;66214;51.302;17.068;2023-01-08T04:35:35;3.07;91.48
77218;DHT22;66214;51.302;17.068;2023-01-08T04:38:04;3.09;91.52
77218;DHT22;66214;51.302;17.068;2023-01-08T04:40:32;3.09;91.62
77218;DHT22;66214;51.302;17.068;2023-01-08T04:43:00;3.09;91.60
77218;DHT22;66214;51.302;17.068;2023-01-08T04:45:28;3.08;91.47
